sensor_id;sensor_type;location;lat;lon;timestamp;temperature;humidity
25302;DHT22;13243;50.888;4.724;2023-04-07T00:01:11;9.30;99.90
25302;DHT22;13243;50.888;4.724;2023-04-07T00:06:13;9.30;99.90
25302;DHT22;13243;50.888;4.724;2023-04-07T00:11:15;9.30;99.90
25302;DHT22;13243;50.888;4.724;2023-04-07T00:16:17;9.20;99.90
25302;DHT22;13243;50.888;4.724;2023-04-07T00:21:19;9.20;99.90
25302;DHT22;13243;50.888;4.724;2023-04-07T00:26:21;9.20;99.90
25302;DHT22;13243;50.888;4.724;2023-04-07T00:31:23;9.20;99.90
25302;DHT22;13243;50.888;4.724;2023-04-07T00:36:24;9.20;99.90
25302;DHT22;13243;50.888;4.724;2023-04-07T00:41:27;9.20;99.90
25302;DHT22;13243;50.888;4.724;2023-04-07T00:46:29;9.20;99.90
25302;DHT22;13243;50.888;4.724;2023-04-07T00:51:31;9.10;99.90
25302;DHT22;13243;50.888;4.724;2023-04-07T00:56:33;9.10;99.90
25302;DHT22;13243;50.888;4.724;2023-04-07T01:01:44;9.10;99.90
25302;DHT22;13243;50.888;4.724;2023-04-07T01:06:50;9.00;99.90
25302;DHT22;13243;50.888;4.724;2023-04-07T01:12:17;9.00;99.90
25302;DHT22;13243;50.888;4.724;2023-04-07T01:17:24;8.90;99.90
25302;DHT22;13243;50.888;4.724;2023-04-07T01:22:39;8.90;99.90
25302;DHT22;13243;50.888;4.724;2023-04-07T01:33:04;8.90;99.90
25302;DHT22;13243;50.888;4.724;2023-04-07T01:38:08;8.90;99.90
25302;DHT22;13243;50.888;4.724;2023-04-07T01:43:12;8.90;99.90
25302;DHT22;13243;50.888;4.724;2023-04-07T01:48:14;8.80;99.90
25302;DHT22;13243;50.888;4.724;2023-04-07T01:53:16;8.80;99.90
25302;DHT22;13243;50.888;4.724;2023-04-07T01:58:18;8.80;99.90
25302;DHT22;13243;50.888;4.724;2023-04-07T02:03:35;8.70;99.90
25302;DHT22;13243;50.888;4.724;2023-04-07T02:08:44;8.70;99.90
25302;DHT22;13243;50.888;4.724;2023-04-07T02:13:49;8.60;99.90
25302;DHT22;13243;50.888;4.724;2023-04-07T02:18:53;8.60;99.90
25302;DHT22;13243;50.888;4.724;2023-04-07T02:23:55;8.50;99.90
25302;DHT22;13243;50.888;4.724;2023-04-07T02:28:57;8.50;99.90
25302;DHT22;13243;50.888;4.724;2023-04-07T02:33:59;8.40;99.90
25302;DHT22;13243;50.888;4.724;2023-04-07T02:39:01;8.30;99.90
25302;DHT22;13243;50.888;4.724;2023-04-07T02:44:03;8.30;99.90
25302;DHT22;13243;50.888;4.724;2023-04-07T02:49:05;8.20;99.90
25302;DHT22;13243;50.888;4.724;2023-04-07T02:54:07;8.20;99.90
25302;DHT22;13243;50.888;4.724;2023-04-07T02:59:09;8.20;99.90
25302;DHT22;13243;50.888;4.724;2023-04-07T03:04:11;8.10;99.90
25302;DHT22;13243;50.888;4.724;2023-04-07T03:09:13;8.10;99.90
25302;DHT22;13243;50.888;4.724;2023-04-07T03:14:15;8.00;99.90
25302;DHT22;13243;50.888;4.724;2023-04-07T03:19:17;8.00;99.90
25302;DHT22;13243;50.888;4.724;2023-04-07T03:24:19;8.00;99.90
25302;DHT22;13243;50.888;4.724;2023-04-07T03:29:21;8.00;99.90
25302;DHT22;13243;50.888;4.724;2023-04-07T03:34:22;7.90;99.90
25302;DHT22;13243;50.888;4.724;2023-04-07T03:39:24;7.80;99.90
25302;DHT22;13243;50.888;4.724;2023-04-07T03:44:26;7.80;99.90
25302;DHT22;13243;50.888;4.724;2023-04-07T03:49:28;7.80;99.90
25302;DHT22;13243;50.888;4.724;2023-04-07T03:54:31;7.80;99.90
25302;DHT22;13243;50.888;4.724;2023-04-07T03:59:35;7.80;99.90
25302;DHT22;13243;50.888;4.724;2023-04-07T04:04:37;7.80;99.90
25302;DHT22;13243;50.888;4.724;2023-04-07T04:09:39;7.80;99.90
25302;DHT22;13243;50.888;4.724;2023-04-07T04:14:41;7.80;99.90
25302;DHT22;13243;50.888;4.724;2023-04-07T04:19:43;7.80;99.90
25302;DHT22;13243;50.888;4.724;2023-04-07T04:24:46;7.90;99.90
25302;DHT22;13243;50.888;4.724;2023-04-07T04:29:48;7.90;99.90
25302;DHT22;13243;50.888;4.724;2023-04-07T04:34:50;7.80;99.90
25302;DHT22;13243;50.888;4.724;2023-04-07T04:39:52;8.00;99.90
25302;DHT22;13243;50.888;4.724;2023-04-07T04:44:54;7.80;99.90
25302;DHT22;13243;50.888;4.724;2023-04-07T04:49:55;7.90;99.90
25302;DHT22;13243;50.888;4.724;2023-04-07T04:54:57;7.90;99.90
25302;DHT22;13243;50.888;4.724;2023-04-07T04:59:59;7.90;99.90
25302;DHT22;13243;50.888;4.724;2023-04-07T05:05:01;7.90;99.90
25302;DHT22;13243;50.888;4.724;2023-04-07T05:10:04;7.80;99.90
25302;DHT22;13243;50.888;4.724;2023-04-07T05:15:06;7.70;99.90
25302;DHT22;13243;50.888;4.724;2023-04-07T05:20:09;7.80;99.90
25302;DHT22;13243;50.888;4.724;2023-04-07T05:25:11;7.70;99.90
25302;DHT22;13243;50.888;4.724;2023-04-07T05:30:16;7.60;99.90
25302;DHT22;13243;50.888;4.724;2023-04-07T05:35:18;7.50;99.90
25302;DHT22;13243;50.888;4.724;2023-04-07T05:40:20;7.50;99.90
25302;DHT22;13243;50.888;4.724;2023-04-07T05:45:22;7.50;99.90
25302;DHT22;13243;50.888;4.724;2023-04-07T05:50:24;7.40;99.90
25302;DHT22;13243;50.888;4.724;2023-04-07T05:55:26;7.60;99.90
25302;DHT22;13243;50.888;4.724;2023-04-07T06:00:28;7.60;99.90
25302;DHT22;13243;50.888;4.724;2023-04-07T06:05:30;7.70;99.90
25302;DHT22;13243;50.888;4.724;2023-04-07T06:10:31;7.70;99.90
25302;DHT22;13243;50.888;4.724;2023-04-07T06:15:34;7.80;99.90
25302;DHT22;13243;50.888;4.724;2023-04-07T06:20:36;8.00;99.90
25302;DHT22;13243;50.888;4.724;2023-04-07T06:25:37;8.00;99.90
25302;DHT22;13243;50.888;4.724;2023-04-07T06:30:40;8.20;99.90
25302;DHT22;13243;50.888;4.724;2023-04-07T06:35:43;8.30;99.90
25302;DHT22;13243;50.888;4.724;2023-04-07T06:40:45;8.40;99.90
25302;DHT22;13243;50.888;4.724;2023-04-07T06:45:47;8.40;99.90
25302;DHT22;13243;50.888;4.724;2023-04-07T06:50:49;8.40;99.90
25302;DHT22;13243;50.888;4.724;2023-04-07T06:56:01;8.50;99.90
25302;DHT22;13243;50.888;4.724;2023-04-07T07:01:03;8.70;99.90
25302;DHT22;13243;50.888;4.724;2023-04-07T07:06:06;9.10;99.90
25302;DHT22;13243;50.888;4.724;2023-04-07T07:11:07;9.20;99.90
25302;DHT22;13243;50.888;4.724;2023-04-07T07:16:10;9.00;99.90
25302;DHT22;13243;50.888;4.724;2023-04-07T07:21:13;9.00;99.90
25302;DHT22;13243;50.888;4.724;2023-04-07T07:26:15;9.00;99.90
25302;DHT22;13243;50.888;4.724;2023-04-07T07:31:16;8.90;99.90
25302;DHT22;13243;50.888;4.724;2023-04-07T07:36:19;9.00;99.90
25302;DHT22;13243;50.888;4.724;2023-04-07T07:41:21;9.10;99.90
25302;DHT22;13243;50.888;4.724;2023-04-07T07:46:23;9.10;99.90
25302;DHT22;13243;50.888;4.724;2023-04-07T07:51:26;9.20;99.90
25302;DHT22;13243;50.888;4.724;2023-04-07T07:56:28;9.10;99.90
25302;DHT22;13243;50.888;4.724;2023-04-07T08:01:30;9.30;99.90
25302;DHT22;13243;50.888;4.724;2023-04-07T08:06:32;9.30;99.90
25302;DHT22;13243;50.888;4.724;2023-04-07T08:11:34;9.60;99.90
25302;DHT22;13243;50.888;4.724;2023-04-07T08:16:36;9.70;99.90
25302;DHT22;13243;50.888;4.724;2023-04-07T08:21:38;9.50;99.90
25302;DHT22;13243;50.888;4.724;2023-04-07T08:26:40;9.50;99.90
25302;DHT22;13243;50.888;4.724;2023-04-07T08:31:42;9.50;99.90
25302;DHT22;13243;50.888;4.724;2023-04-07T08:36:44;9.50;99.90
25302;DHT22;13243;50.888;4.724;2023-04-07T08:41:46;9.80;99.90
25302;DHT22;13243;50.888;4.724;2023-04-07T08:46:50;10.10;99.90
25302;DHT22;13243;50.888;4.724;2023-04-07T08:51:54;10.10;99.90
25302;DHT22;13243;50.888;4.724;2023-04-07T08:56:57;10.10;99.90
25302;DHT22;13243;50.888;4.724;2023-04-07T09:01:59;10.00;99.90
25302;DHT22;13243;50.888;4.724;2023-04-07T09:07:01;10.20;99.90
25302;DHT22;13243;50.888;4.724;2023-04-07T09:12:04;10.40;99.90
25302;DHT22;13243;50.888;4.724;2023-04-07T09:17:06;10.50;99.90
25302;DHT22;13243;50.888;4.724;2023-04-07T09:22:07;10.60;99.90
25302;DHT22;13243;50.888;4.724;2023-04-07T09:27:15;10.50;99.90
25302;DHT22;13243;50.888;4.724;2023-04-07T09:32:35;10.40;99.90
25302;DHT22;13243;50.888;4.724;2023-04-07T09:37:40;10.40;99.90
25302;DHT22;13243;50.888;4.724;2023-04-07T09:42:46;10.50;99.90
25302;DHT22;13243;50.888;4.724;2023-04-07T09:47:48;10.70;99.90
25302;DHT22;13243;50.888;4.724;2023-04-07T09:52:51;10.80;99.90
25302;DHT22;13243;50.888;4.724;2023-04-07T09:57:54;10.90;99.90
25302;DHT22;13243;50.888;4.724;2023-04-07T10:02:56;10.80;99.90
25302;DHT22;13243;50.888;4.724;2023-04-07T10:07:59;11.00;99.90
25302;DHT22;13243;50.888;4.724;2023-04-07T10:13:04;11.30;99.90
25302;DHT22;13243;50.888;4.724;2023-04-07T10:18:07;11.70;99.90
25302;DHT22;13243;50.888;4.724;2023-04-07T10:23:20;11.50;99.90
25302;DHT22;13243;50.888;4.724;2023-04-07T10:28:24;11.30;99.90
25302;DHT22;13243;50.888;4.724;2023-04-07T10:33:50;11.30;99.90
25302;DHT22;13243;50.888;4.724;2023-04-07T10:55:38;11.20;99.90
25302;DHT22;13243;50.888;4.724;2023-04-07T11:00:41;11.30;99.90
25302;DHT22;13243;50.888;4.724;2023-04-07T11:05:43;11.10;99.90
25302;DHT22;13243;50.888;4.724;2023-04-07T11:10:48;10.80;99.90
25302;DHT22;13243;50.888;4.724;2023-04-07T11:15:50;10.60;99.90
25302;DHT22;13243;50.888;4.724;2023-04-07T11:20:55;10.60;99.90
25302;DHT22;13243;50.888;4.724;2023-04-07T11:26:00;10.90;99.90
25302;DHT22;13243;50.888;4.724;2023-04-07T11:31:03;10.90;99.90
25302;DHT22;13243;50.888;4.724;2023-04-07T11:36:05;11.20;99.90
25302;DHT22;13243;50.888;4.724;2023-04-07T11:41:12;11.40;99.90
25302;DHT22;13243;50.888;4.724;2023-04-07T11:46:16;11.60;99.90
25302;DHT22;13243;50.888;4.724;2023-04-07T11:51:20;11.50;99.90
25302;DHT22;13243;50.888;4.724;2023-04-07T11:56:25;11.20;99.90
25302;DHT22;13243;50.888;4.724;2023-04-07T12:01:39;11.10;99.90
25302;DHT22;13243;50.888;4.724;2023-04-07T12:06:44;11.10;99.90
25302;DHT22;13243;50.888;4.724;2023-04-07T12:11:49;11.40;99.90
25302;DHT22;13243;50.888;4.724;2023-04-07T12:16:51;11.40;99.90
25302;DHT22;13243;50.888;4.724;2023-04-07T12:21:55;11.40;99.90
25302;DHT22;13243;50.888;4.724;2023-04-07T12:26:57;10.90;99.90
25302;DHT22;13243;50.888;4.724;2023-04-07T12:31:59;10.80;99.90
25302;DHT22;13243;50.888;4.724;2023-04-07T12:37:01;10.70;99.90
25302;DHT22;13243;50.888;4.724;2023-04-07T12:42:03;10.70;99.90
25302;DHT22;13243;50.888;4.724;2023-04-07T12:47:05;10.70;99.90
25302;DHT22;13243;50.888;4.724;2023-04-07T12:52:07;10.70;99.90
25302;DHT22;13243;50.888;4.724;2023-04-07T12:57:09;10.80;99.90
25302;DHT22;13243;50.888;4.724;2023-04-07T13:02:11;10.90;99.90
25302;DHT22;13243;50.888;4.724;2023-04-07T13:07:14;11.10;99.90
25302;DHT22;13243;50.888;4.724;2023-04-07T13:12:16;11.10;99.90
25302;DHT22;13243;50.888;4.724;2023-04-07T13:17:18;11.40;99.90
25302;DHT22;13243;50.888;4.724;2023-04-07T13:22:20;11.60;99.90
25302;DHT22;13243;50.888;4.724;2023-04-07T13:27:25;11.70;99.90
25302;DHT22;13243;50.888;4.724;2023-04-07T13:32:28;12.10;99.90
25302;DHT22;13243;50.888;4.724;2023-04-07T13:37:29;12.20;99.90
25302;DHT22;13243;50.888;4.724;2023-04-07T13:42:31;12.30;99.90
25302;DHT22;13243;50.888;4.724;2023-04-07T13:47:33;11.80;99.90
25302;DHT22;13243;50.888;4.724;2023-04-07T13:52:36;11.50;99.90
25302;DHT22;13243;50.888;4.724;2023-04-07T13:57:38;11.30;99.90
25302;DHT22;13243;50.888;4.724;2023-04-07T14:02:39;11.20;99.90
25302;DHT22;13243;50.888;4.724;2023-04-07T14:07:41;11.20;99.90
25302;DHT22;13243;50.888;4.724;2023-04-07T14:12:43;11.10;99.90
25302;DHT22;13243;50.888;4.724;2023-04-07T14:17:45;11.00;99.90
25302;DHT22;13243;50.888;4.724;2023-04-07T14:22:47;11.10;99.90
25302;DHT22;13243;50.888;4.724;2023-04-07T14:27:50;11.10;99.90
25302;DHT22;13243;50.888;4.724;2023-04-07T14:32:51;11.20;99.90
25302;DHT22;13243;50.888;4.724;2023-04-07T14:37:54;11.10;99.90
25302;DHT22;13243;50.888;4.724;2023-04-07T14:42:56;11.30;99.90
25302;DHT22;13243;50.888;4.724;2023-04-07T14:48:02;11.30;99.90
25302;DHT22;13243;50.888;4.724;2023-04-07T14:53:04;11.10;99.90
25302;DHT22;13243;50.888;4.724;2023-04-07T14:58:07;11.10;99.90
25302;DHT22;13243;50.888;4.724;2023-04-07T15:03:08;11.30;99.90
25302;DHT22;13243;50.888;4.724;2023-04-07T15:08:11;11.50;99.90
25302;DHT22;13243;50.888;4.724;2023-04-07T15:13:13;11.90;99.90
25302;DHT22;13243;50.888;4.724;2023-04-07T15:18:15;12.20;99.90
25302;DHT22;13243;50.888;4.724;2023-04-07T15:23:17;14.50;99.90
25302;DHT22;13243;50.888;4.724;2023-04-07T15:28:18;14.90;99.90
25302;DHT22;13243;50.888;4.724;2023-04-07T15:33:20;15.00;99.90
25302;DHT22;13243;50.888;4.724;2023-04-07T15:38:22;15.30;99.90
25302;DHT22;13243;50.888;4.724;2023-04-07T15:43:24;14.20;99.90
25302;DHT22;13243;50.888;4.724;2023-04-07T15:48:26;14.80;99.90
25302;DHT22;13243;50.888;4.724;2023-04-07T15:53:28;15.00;99.90
25302;DHT22;13243;50.888;4.724;2023-04-07T15:58:30;14.00;99.90
25302;DHT22;13243;50.888;4.724;2023-04-07T16:03:33;13.10;99.90
25302;DHT22;13243;50.888;4.724;2023-04-07T16:08:35;13.00;99.90
25302;DHT22;13243;50.888;4.724;2023-04-07T16:13:36;12.60;99.90
25302;DHT22;13243;50.888;4.724;2023-04-07T16:18:38;12.60;99.90
25302;DHT22;13243;50.888;4.724;2023-04-07T16:23:40;12.60;99.90
25302;DHT22;13243;50.888;4.724;2023-04-07T16:28:42;12.10;99.90
25302;DHT22;13243;50.888;4.724;2023-04-07T16:33:44;12.20;99.90
25302;DHT22;13243;50.888;4.724;2023-04-07T16:38:46;12.20;99.90
25302;DHT22;13243;50.888;4.724;2023-04-07T16:43:50;12.20;99.90
25302;DHT22;13243;50.888;4.724;2023-04-07T16:48:52;12.00;99.90
25302;DHT22;13243;50.888;4.724;2023-04-07T16:53:54;11.80;99.90
25302;DHT22;13243;50.888;4.724;2023-04-07T16:58:55;11.60;99.90
25302;DHT22;13243;50.888;4.724;2023-04-07T17:03:57;11.50;99.90
25302;DHT22;13243;50.888;4.724;2023-04-07T17:08:59;11.30;99.90
25302;DHT22;13243;50.888;4.724;2023-04-07T17:14:01;11.20;99.90
25302;DHT22;13243;50.888;4.724;2023-04-07T17:19:05;11.10;99.90
25302;DHT22;13243;50.888;4.724;2023-04-07T17:24:06;11.10;99.90
25302;DHT22;13243;50.888;4.724;2023-04-07T17:29:09;10.90;99.90
25302;DHT22;13243;50.888;4.724;2023-04-07T17:34:11;10.90;99.90
25302;DHT22;13243;50.888;4.724;2023-04-07T17:39:12;10.80;99.90
25302;DHT22;13243;50.888;4.724;2023-04-07T17:44:14;10.70;99.90
25302;DHT22;13243;50.888;4.724;2023-04-07T17:49:16;10.70;99.90
25302;DHT22;13243;50.888;4.724;2023-04-07T17:54:18;10.50;99.90
25302;DHT22;13243;50.888;4.724;2023-04-07T17:59:20;10.50;99.90
25302;DHT22;13243;50.888;4.724;2023-04-07T18:04:22;10.60;99.90
25302;DHT22;13243;50.888;4.724;2023-04-07T18:09:24;10.50;99.90
25302;DHT22;13243;50.888;4.724;2023-04-07T18:14:26;10.50;99.90
25302;DHT22;13243;50.888;4.724;2023-04-07T18:19:28;10.40;99.90
25302;DHT22;13243;50.888;4.724;2023-04-07T18:24:30;10.30;99.90
25302;DHT22;13243;50.888;4.724;2023-04-07T18:29:33;10.30;99.90
25302;DHT22;13243;50.888;4.724;2023-04-07T18:34:35;10.40;99.90
25302;DHT22;13243;50.888;4.724;2023-04-07T18:39:36;10.30;99.90
25302;DHT22;13243;50.888;4.724;2023-04-07T18:44:38;10.20;99.90
25302;DHT22;13243;50.888;4.724;2023-04-07T18:49:40;10.20;99.90
25302;DHT22;13243;50.888;4.724;2023-04-07T18:54:43;10.20;99.90
25302;DHT22;13243;50.888;4.724;2023-04-07T18:59:45;10.20;99.90
25302;DHT22;13243;50.888;4.724;2023-04-07T19:04:46;10.20;99.90
25302;DHT22;13243;50.888;4.724;2023-04-07T19:09:50;10.10;99.90
25302;DHT22;13243;50.888;4.724;2023-04-07T19:14:54;10.00;99.90
25302;DHT22;13243;50.888;4.724;2023-04-07T19:19:57;10.10;99.90
25302;DHT22;13243;50.888;4.724;2023-04-07T19:24:58;10.00;99.90
25302;DHT22;13243;50.888;4.724;2023-04-07T19:30:00;10.00;99.90
25302;DHT22;13243;50.888;4.724;2023-04-07T19:35:02;10.00;99.90
25302;DHT22;13243;50.888;4.724;2023-04-07T19:40:05;10.00;99.90
25302;DHT22;13243;50.888;4.724;2023-04-07T19:45:08;10.00;99.90
25302;DHT22;13243;50.888;4.724;2023-04-07T19:50:10;10.00;99.90
25302;DHT22;13243;50.888;4.724;2023-04-07T19:55:12;10.00;99.90
25302;DHT22;13243;50.888;4.724;2023-04-07T20:00:14;9.90;99.90
25302;DHT22;13243;50.888;4.724;2023-04-07T20:05:17;9.90;99.90
25302;DHT22;13243;50.888;4.724;2023-04-07T20:10:20;9.80;99.90
25302;DHT22;13243;50.888;4.724;2023-04-07T20:15:22;9.90;99.90
25302;DHT22;13243;50.888;4.724;2023-04-07T20:20:25;9.80;99.90
25302;DHT22;13243;50.888;4.724;2023-04-07T20:25:27;9.80;99.90
25302;DHT22;13243;50.888;4.724;2023-04-07T20:30:29;9.80;99.90
25302;DHT22;13243;50.888;4.724;2023-04-07T20:35:31;9.70;99.90
25302;DHT22;13243;50.888;4.724;2023-04-07T20:40:36;9.80;99.90
25302;DHT22;13243;50.888;4.724;2023-04-07T20:45:38;9.80;99.90
25302;DHT22;13243;50.888;4.724;2023-04-07T20:50:40;9.80;99.90
25302;DHT22;13243;50.888;4.724;2023-04-07T20:55:42;9.70;99.90
25302;DHT22;13243;50.888;4.724;2023-04-07T21:00:44;9.70;99.90
25302;DHT22;13243;50.888;4.724;2023-04-07T21:05:46;9.60;99.90
25302;DHT22;13243;50.888;4.724;2023-04-07T21:10:51;9.70;99.90
25302;DHT22;13243;50.888;4.724;2023-04-07T21:15:54;9.70;99.90
25302;DHT22;13243;50.888;4.724;2023-04-07T21:20:58;9.60;99.90
25302;DHT22;13243;50.888;4.724;2023-04-07T21:26:02;9.70;99.90
25302;DHT22;13243;50.888;4.724;2023-04-07T21:31:05;9.60;99.90
25302;DHT22;13243;50.888;4.724;2023-04-07T21:36:06;9.50;99.90
25302;DHT22;13243;50.888;4.724;2023-04-07T21:41:11;9.60;99.90
25302;DHT22;13243;50.888;4.724;2023-04-07T21:46:14;9.60;99.90
25302;DHT22;13243;50.888;4.724;2023-04-07T21:51:17;9.60;99.90
25302;DHT22;13243;50.888;4.724;2023-04-07T21:56:18;9.60;99.90
25302;DHT22;13243;50.888;4.724;2023-04-07T22:01:20;9.60;99.90
25302;DHT22;13243;50.888;4.724;2023-04-07T22:06:22;9.50;99.90
25302;DHT22;13243;50.888;4.724;2023-04-07T22:11:24;9.40;99.90
25302;DHT22;13243;50.888;4.724;2023-04-07T22:16:26;9.50;99.90
25302;DHT22;13243;50.888;4.724;2023-04-07T22:21:28;9.40;99.90
25302;DHT22;13243;50.888;4.724;2023-04-07T22:26:31;9.40;99.90
25302;DHT22;13243;50.888;4.724;2023-04-07T22:31:33;9.30;99.90
25302;DHT22;13243;50.888;4.724;2023-04-07T22:36:34;9.40;99.90
25302;DHT22;13243;50.888;4.724;2023-04-07T22:41:37;9.30;99.90
25302;DHT22;13243;50.888;4.724;2023-04-07T22:46:38;9.30;99.90
25302;DHT22;13243;50.888;4.724;2023-04-07T22:51:41;9.30;99.90
25302;DHT22;13243;50.888;4.724;2023-04-07T22:56:48;9.30;99.90
25302;DHT22;13243;50.888;4.724;2023-04-07T23:01:51;9.30;99.90
25302;DHT22;13243;50.888;4.724;2023-04-07T23:06:53;9.30;99.90
25302;DHT22;13243;50.888;4.724;2023-04-07T23:11:54;9.30;99.90
25302;DHT22;13243;50.888;4.724;2023-04-07T23:16:57;9.20;99.90
25302;DHT22;13243;50.888;4.724;2023-04-07T23:21:59;9.30;99.90
25302;DHT22;13243;50.888;4.724;2023-04-07T23:27:01;9.30;99.90
25302;DHT22;13243;50.888;4.724;2023-04-07T23:32:03;9.20;99.90
25302;DHT22;13243;50.888;4.724;2023-04-07T23:37:06;9.20;99.90
25302;DHT22;13243;50.888;4.724;2023-04-07T23:42:08;9.20;99.90
25302;DHT22;13243;50.888;4.724;2023-04-07T23:47:10;9.20;99.90
25302;DHT22;13243;50.888;4.724;2023-04-07T23:52:11;9.20;99.90
25302;DHT22;13243;50.888;4.724;2023-04-07T23:57:13;9.10;99.90
